sensor_id;sensor_type;location;lat;lon;timestamp;P1;durP1;ratioP1;P2;durP2;ratioP2
7665;SDS011;3875;46.562;4.898;2023-11-21T00:00:46;512.73;;;471.60;;
7665;SDS011;3875;46.562;4.898;2023-11-21T00:03:12;519.33;;;477.53;;
7665;SDS011;3875;46.562;4.898;2023-11-21T00:05:40;502.70;;;461.53;;
7665;SDS011;3875;46.562;4.898;2023-11-21T00:08:07;486.10;;;446.47;;
7665;SDS011;3875;46.562;4.898;2023-11-21T00:10:33;506.83;;;465.07;;
7665;SDS011;3875;46.562;4.898;2023-11-21T00:12:59;496.00;;;455.00;;
7665;SDS011;3875;46.562;4.898;2023-11-21T00:15:27;509.27;;;467.07;;
7665;SDS011;3875;46.562;4.898;2023-11-21T00:17:52;499.93;;;459.63;;
7665;SDS011;3875;46.562;4.898;2023-11-21T00:20:18;503.33;;;462.10;;
7665;SDS011;3875;46.562;4.898;2023-11-21T00:22:43;513.40;;;471.07;;
7665;SDS011;3875;46.562;4.898;2023-11-21T00:25:09;491.00;;;450.53;;
7665;SDS011;3875;46.562;4.898;2023-11-21T00:27:36;497.17;;;457.00;;
7665;SDS011;3875;46.562;4.898;2023-11-21T00:30:02;472.67;;;433.70;;
7665;SDS011;3875;46.562;4.898;2023-11-21T00:32:29;480.43;;;442.63;;
7665;SDS011;3875;46.562;4.898;2023-11-21T00:34:55;507.07;;;467.90;;
7665;SDS011;3875;46.562;4.898;2023-11-21T00:37:21;500.70;;;460.10;;
7665;SDS011;3875;46.562;4.898;2023-11-21T00:39:47;510.53;;;469.90;;
7665;SDS011;3875;46.562;4.898;2023-11-21T00:42:13;483.50;;;444.07;;
7665;SDS011;3875;46.562;4.898;2023-11-21T00:44:39;491.27;;;446.93;;
7665;SDS011;3875;46.562;4.898;2023-11-21T00:47:04;481.73;;;439.27;;
7665;SDS011;3875;46.562;4.898;2023-11-21T00:49:30;493.20;;;451.57;;
7665;SDS011;3875;46.562;4.898;2023-11-21T00:51:56;491.50;;;450.10;;
7665;SDS011;3875;46.562;4.898;2023-11-21T00:54:23;501.97;;;459.20;;
7665;SDS011;3875;46.562;4.898;2023-11-21T00:56:48;499.70;;;457.33;;
7665;SDS011;3875;46.562;4.898;2023-11-21T00:59:14;498.03;;;454.10;;
7665;SDS011;3875;46.562;4.898;2023-11-21T01:01:40;490.23;;;448.30;;
7665;SDS011;3875;46.562;4.898;2023-11-21T01:04:05;493.37;;;450.00;;
7665;SDS011;3875;46.562;4.898;2023-11-21T01:06:32;496.70;;;453.70;;
7665;SDS011;3875;46.562;4.898;2023-11-21T01:08:58;501.60;;;458.17;;
7665;SDS011;3875;46.562;4.898;2023-11-21T01:11:23;484.80;;;441.83;;
7665;SDS011;3875;46.562;4.898;2023-11-21T01:13:49;488.77;;;446.30;;
7665;SDS011;3875;46.562;4.898;2023-11-21T01:16:15;498.87;;;454.60;;
7665;SDS011;3875;46.562;4.898;2023-11-21T01:18:40;494.97;;;451.67;;
7665;SDS011;3875;46.562;4.898;2023-11-21T01:21:06;477.87;;;437.60;;
7665;SDS011;3875;46.562;4.898;2023-11-21T01:23:32;495.60;;;454.63;;
7665;SDS011;3875;46.562;4.898;2023-11-21T01:25:58;491.50;;;451.00;;
7665;SDS011;3875;46.562;4.898;2023-11-21T01:28:23;490.47;;;450.07;;
7665;SDS011;3875;46.562;4.898;2023-11-21T01:30:49;478.97;;;440.07;;
7665;SDS011;3875;46.562;4.898;2023-11-21T01:33:15;484.87;;;445.50;;
7665;SDS011;3875;46.562;4.898;2023-11-21T01:35:41;488.70;;;450.33;;
7665;SDS011;3875;46.562;4.898;2023-11-21T01:38:07;499.13;;;459.00;;
7665;SDS011;3875;46.562;4.898;2023-11-21T01:40:33;496.50;;;457.73;;
7665;SDS011;3875;46.562;4.898;2023-11-21T01:42:59;484.53;;;446.73;;
7665;SDS011;3875;46.562;4.898;2023-11-21T01:45:28;478.10;;;440.40;;
7665;SDS011;3875;46.562;4.898;2023-11-21T01:47:56;487.13;;;449.17;;
7665;SDS011;3875;46.562;4.898;2023-11-21T01:50:23;483.63;;;446.23;;
7665;SDS011;3875;46.562;4.898;2023-11-21T01:52:49;484.23;;;446.33;;
7665;SDS011;3875;46.562;4.898;2023-11-21T01:55:17;489.53;;;451.80;;
7665;SDS011;3875;46.562;4.898;2023-11-21T01:57:43;489.83;;;451.57;;
7665;SDS011;3875;46.562;4.898;2023-11-21T02:00:11;493.03;;;455.33;;
7665;SDS011;3875;46.562;4.898;2023-11-21T02:02:48;479.73;;;441.83;;
7665;SDS011;3875;46.562;4.898;2023-11-21T02:05:17;478.67;;;441.73;;
7665;SDS011;3875;46.562;4.898;2023-11-21T02:07:44;481.60;;;444.33;;
7665;SDS011;3875;46.562;4.898;2023-11-21T02:10:12;476.83;;;440.33;;
7665;SDS011;3875;46.562;4.898;2023-11-21T02:12:41;491.53;;;454.33;;
7665;SDS011;3875;46.562;4.898;2023-11-21T02:15:10;483.33;;;446.00;;
7665;SDS011;3875;46.562;4.898;2023-11-21T02:17:44;484.70;;;446.07;;
7665;SDS011;3875;46.562;4.898;2023-11-21T02:20:13;480.13;;;442.53;;
7665;SDS011;3875;46.562;4.898;2023-11-21T02:22:42;463.80;;;426.30;;
7665;SDS011;3875;46.562;4.898;2023-11-21T02:25:31;490.03;;;451.23;;
7665;SDS011;3875;46.562;4.898;2023-11-21T02:27:59;481.53;;;443.03;;
7665;SDS011;3875;46.562;4.898;2023-11-21T02:30:26;469.37;;;431.37;;
7665;SDS011;3875;46.562;4.898;2023-11-21T02:32:53;491.53;;;452.63;;
7665;SDS011;3875;46.562;4.898;2023-11-21T02:35:19;485.97;;;447.80;;
7665;SDS011;3875;46.562;4.898;2023-11-21T02:37:51;473.60;;;435.67;;
7665;SDS011;3875;46.562;4.898;2023-11-21T02:40:19;479.60;;;441.47;;
7665;SDS011;3875;46.562;4.898;2023-11-21T02:42:50;488.30;;;449.93;;
7665;SDS011;3875;46.562;4.898;2023-11-21T02:45:16;490.93;;;451.83;;
7665;SDS011;3875;46.562;4.898;2023-11-21T02:47:45;468.10;;;430.20;;
7665;SDS011;3875;46.562;4.898;2023-11-21T02:50:12;476.70;;;438.67;;
7665;SDS011;3875;46.562;4.898;2023-11-21T02:52:38;484.23;;;445.83;;
7665;SDS011;3875;46.562;4.898;2023-11-21T02:55:07;483.43;;;446.73;;
7665;SDS011;3875;46.562;4.898;2023-11-21T02:57:33;482.33;;;445.03;;
7665;SDS011;3875;46.562;4.898;2023-11-21T02:59:59;478.37;;;442.57;;
7665;SDS011;3875;46.562;4.898;2023-11-21T03:02:25;475.60;;;439.47;;
7665;SDS011;3875;46.562;4.898;2023-11-21T03:04:50;477.70;;;441.77;;
7665;SDS011;3875;46.562;4.898;2023-11-21T03:07:16;483.73;;;446.07;;
7665;SDS011;3875;46.562;4.898;2023-11-21T03:09:46;480.43;;;444.00;;
7665;SDS011;3875;46.562;4.898;2023-11-21T03:12:12;481.50;;;443.93;;
7665;SDS011;3875;46.562;4.898;2023-11-21T03:14:38;478.57;;;442.57;;
7665;SDS011;3875;46.562;4.898;2023-11-21T03:17:04;473.43;;;437.67;;
7665;SDS011;3875;46.562;4.898;2023-11-21T03:19:30;471.33;;;435.40;;
7665;SDS011;3875;46.562;4.898;2023-11-21T03:21:56;469.00;;;432.80;;
7665;SDS011;3875;46.562;4.898;2023-11-21T03:24:21;478.23;;;442.33;;
7665;SDS011;3875;46.562;4.898;2023-11-21T03:26:47;481.73;;;444.80;;
7665;SDS011;3875;46.562;4.898;2023-11-21T03:29:13;483.87;;;446.90;;
7665;SDS011;3875;46.562;4.898;2023-11-21T03:31:40;467.87;;;431.07;;
7665;SDS011;3875;46.562;4.898;2023-11-21T03:34:05;477.87;;;441.53;;
7665;SDS011;3875;46.562;4.898;2023-11-21T03:36:31;492.07;;;454.37;;
7665;SDS011;3875;46.562;4.898;2023-11-21T03:38:57;487.97;;;451.23;;
7665;SDS011;3875;46.562;4.898;2023-11-21T03:41:22;487.33;;;449.90;;
7665;SDS011;3875;46.562;4.898;2023-11-21T03:43:48;477.53;;;440.77;;
7665;SDS011;3875;46.562;4.898;2023-11-21T03:46:14;494.37;;;456.20;;
7665;SDS011;3875;46.562;4.898;2023-11-21T03:48:39;470.90;;;434.13;;
7665;SDS011;3875;46.562;4.898;2023-11-21T03:51:05;478.67;;;440.83;;
7665;SDS011;3875;46.562;4.898;2023-11-21T03:53:31;486.17;;;448.10;;
7665;SDS011;3875;46.562;4.898;2023-11-21T03:55:57;495.37;;;456.80;;
7665;SDS011;3875;46.562;4.898;2023-11-21T03:58:23;488.37;;;449.40;;
7665;SDS011;3875;46.562;4.898;2023-11-21T04:00:48;493.57;;;454.40;;
7665;SDS011;3875;46.562;4.898;2023-11-21T04:03:14;494.07;;;454.53;;
7665;SDS011;3875;46.562;4.898;2023-11-21T04:05:40;496.73;;;455.80;;
7665;SDS011;3875;46.562;4.898;2023-11-21T04:08:06;496.90;;;456.03;;
7665;SDS011;3875;46.562;4.898;2023-11-21T04:10:32;493.13;;;452.23;;
7665;SDS011;3875;46.562;4.898;2023-11-21T04:12:58;474.00;;;434.90;;
7665;SDS011;3875;46.562;4.898;2023-11-21T04:15:25;496.10;;;455.73;;
7665;SDS011;3875;46.562;4.898;2023-11-21T04:17:51;494.67;;;453.90;;
7665;SDS011;3875;46.562;4.898;2023-11-21T04:20:16;490.43;;;450.10;;
7665;SDS011;3875;46.562;4.898;2023-11-21T04:22:43;493.43;;;453.20;;
7665;SDS011;3875;46.562;4.898;2023-11-21T04:25:13;493.90;;;453.27;;
7665;SDS011;3875;46.562;4.898;2023-11-21T04:27:40;493.10;;;453.23;;
7665;SDS011;3875;46.562;4.898;2023-11-21T04:30:08;487.37;;;447.13;;
7665;SDS011;3875;46.562;4.898;2023-11-21T04:32:35;479.87;;;441.47;;
7665;SDS011;3875;46.562;4.898;2023-11-21T04:35:01;463.77;;;426.57;;
7665;SDS011;3875;46.562;4.898;2023-11-21T04:37:27;471.40;;;434.10;;
7665;SDS011;3875;46.562;4.898;2023-11-21T04:39:52;488.30;;;449.57;;
7665;SDS011;3875;46.562;4.898;2023-11-21T04:42:18;488.23;;;449.63;;
7665;SDS011;3875;46.562;4.898;2023-11-21T04:44:43;485.70;;;447.77;;
7665;SDS011;3875;46.562;4.898;2023-11-21T04:47:09;479.10;;;441.03;;
7665;SDS011;3875;46.562;4.898;2023-11-21T04:49:35;489.60;;;450.23;;
7665;SDS011;3875;46.562;4.898;2023-11-21T04:52:01;500.07;;;461.37;;
7665;SDS011;3875;46.562;4.898;2023-11-21T04:54:28;490.20;;;451.43;;
7665;SDS011;3875;46.562;4.898;2023-11-21T04:56:55;493.30;;;453.17;;
7665;SDS011;3875;46.562;4.898;2023-11-21T04:59:21;505.53;;;464.40;;
7665;SDS011;3875;46.562;4.898;2023-11-21T05:01:49;504.43;;;462.23;;
7665;SDS011;3875;46.562;4.898;2023-11-21T05:04:15;517.83;;;474.77;;
7665;SDS011;3875;46.562;4.898;2023-11-21T05:06:41;487.07;;;446.13;;
7665;SDS011;3875;46.562;4.898;2023-11-21T05:09:07;500.23;;;457.47;;
7665;SDS011;3875;46.562;4.898;2023-11-21T05:11:36;487.97;;;446.03;;
7665;SDS011;3875;46.562;4.898;2023-11-21T05:14:03;487.77;;;446.10;;
7665;SDS011;3875;46.562;4.898;2023-11-21T05:16:30;489.00;;;448.37;;
7665;SDS011;3875;46.562;4.898;2023-11-21T05:18:56;505.40;;;462.27;;
7665;SDS011;3875;46.562;4.898;2023-11-21T05:21:25;508.77;;;466.10;;
7665;SDS011;3875;46.562;4.898;2023-11-21T05:23:57;491.97;;;449.53;;
7665;SDS011;3875;46.562;4.898;2023-11-21T05:26:22;497.57;;;455.57;;
7665;SDS011;3875;46.562;4.898;2023-11-21T05:28:48;497.83;;;455.83;;
7665;SDS011;3875;46.562;4.898;2023-11-21T05:31:13;506.57;;;466.00;;
7665;SDS011;3875;46.562;4.898;2023-11-21T05:33:40;514.20;;;472.60;;
7665;SDS011;3875;46.562;4.898;2023-11-21T05:36:06;498.60;;;457.63;;
7665;SDS011;3875;46.562;4.898;2023-11-21T05:38:33;496.30;;;455.63;;
7665;SDS011;3875;46.562;4.898;2023-11-21T05:41:00;476.93;;;437.53;;
7665;SDS011;3875;46.562;4.898;2023-11-21T05:43:26;498.47;;;458.80;;
7665;SDS011;3875;46.562;4.898;2023-11-21T05:45:53;493.73;;;454.97;;
7665;SDS011;3875;46.562;4.898;2023-11-21T05:48:18;480.80;;;442.23;;
7665;SDS011;3875;46.562;4.898;2023-11-21T05:50:45;496.53;;;457.27;;
7665;SDS011;3875;46.562;4.898;2023-11-21T05:53:10;497.33;;;457.90;;
7665;SDS011;3875;46.562;4.898;2023-11-21T05:55:36;484.37;;;445.77;;
7665;SDS011;3875;46.562;4.898;2023-11-21T05:58:02;485.43;;;446.53;;
7665;SDS011;3875;46.562;4.898;2023-11-21T06:00:27;483.80;;;445.87;;
7665;SDS011;3875;46.562;4.898;2023-11-21T06:02:53;473.73;;;436.87;;
7665;SDS011;3875;46.562;4.898;2023-11-21T06:05:21;482.57;;;445.40;;
7665;SDS011;3875;46.562;4.898;2023-11-21T06:07:49;479.77;;;442.13;;
7665;SDS011;3875;46.562;4.898;2023-11-21T06:10:16;471.00;;;434.93;;
7665;SDS011;3875;46.562;4.898;2023-11-21T06:12:44;497.10;;;459.93;;
7665;SDS011;3875;46.562;4.898;2023-11-21T06:15:10;456.90;;;421.57;;
7665;SDS011;3875;46.562;4.898;2023-11-21T06:17:38;461.00;;;425.50;;
7665;SDS011;3875;46.562;4.898;2023-11-21T06:20:05;480.87;;;443.63;;
7665;SDS011;3875;46.562;4.898;2023-11-21T06:22:39;480.00;;;443.33;;
7665;SDS011;3875;46.562;4.898;2023-11-21T06:25:06;468.67;;;432.30;;
7665;SDS011;3875;46.562;4.898;2023-11-21T06:27:33;476.27;;;440.07;;
7665;SDS011;3875;46.562;4.898;2023-11-21T06:30:01;480.47;;;443.63;;
7665;SDS011;3875;46.562;4.898;2023-11-21T06:32:26;465.20;;;429.93;;
7665;SDS011;3875;46.562;4.898;2023-11-21T06:34:54;469.83;;;433.97;;
7665;SDS011;3875;46.562;4.898;2023-11-21T06:37:20;480.73;;;444.83;;
7665;SDS011;3875;46.562;4.898;2023-11-21T06:39:48;474.20;;;438.20;;
7665;SDS011;3875;46.562;4.898;2023-11-21T06:42:14;464.93;;;430.00;;
7665;SDS011;3875;46.562;4.898;2023-11-21T06:44:40;479.53;;;443.47;;
7665;SDS011;3875;46.562;4.898;2023-11-21T06:47:06;455.20;;;420.80;;
7665;SDS011;3875;46.562;4.898;2023-11-21T06:49:32;464.07;;;428.47;;
7665;SDS011;3875;46.562;4.898;2023-11-21T06:51:58;478.70;;;442.67;;
7665;SDS011;3875;46.562;4.898;2023-11-21T06:54:24;489.90;;;453.73;;
7665;SDS011;3875;46.562;4.898;2023-11-21T06:56:49;483.60;;;447.07;;
7665;SDS011;3875;46.562;4.898;2023-11-21T06:59:15;481.80;;;445.13;;
7665;SDS011;3875;46.562;4.898;2023-11-21T07:01:41;474.73;;;438.90;;
7665;SDS011;3875;46.562;4.898;2023-11-21T07:04:09;460.87;;;425.17;;
7665;SDS011;3875;46.562;4.898;2023-11-21T07:06:35;479.07;;;442.83;;
7665;SDS011;3875;46.562;4.898;2023-11-21T07:09:00;463.10;;;427.33;;
7665;SDS011;3875;46.562;4.898;2023-11-21T07:11:29;465.63;;;429.93;;
7665;SDS011;3875;46.562;4.898;2023-11-21T07:13:54;463.77;;;428.73;;
7665;SDS011;3875;46.562;4.898;2023-11-21T07:16:20;475.07;;;438.70;;
7665;SDS011;3875;46.562;4.898;2023-11-21T07:18:47;475.97;;;439.30;;
7665;SDS011;3875;46.562;4.898;2023-11-21T07:21:14;472.93;;;436.60;;
7665;SDS011;3875;46.562;4.898;2023-11-21T07:23:41;457.23;;;422.37;;
7665;SDS011;3875;46.562;4.898;2023-11-21T07:26:06;463.03;;;428.10;;
7665;SDS011;3875;46.562;4.898;2023-11-21T07:28:34;469.60;;;433.23;;
7665;SDS011;3875;46.562;4.898;2023-11-21T07:31:00;484.97;;;448.40;;
7665;SDS011;3875;46.562;4.898;2023-11-21T07:33:26;482.93;;;446.37;;
7665;SDS011;3875;46.562;4.898;2023-11-21T07:35:52;468.17;;;432.80;;
7665;SDS011;3875;46.562;4.898;2023-11-21T07:38:18;468.13;;;431.97;;
7665;SDS011;3875;46.562;4.898;2023-11-21T07:40:43;466.37;;;430.17;;
7665;SDS011;3875;46.562;4.898;2023-11-21T07:43:09;474.50;;;438.23;;
7665;SDS011;3875;46.562;4.898;2023-11-21T07:45:35;468.83;;;433.30;;
7665;SDS011;3875;46.562;4.898;2023-11-21T07:48:01;484.43;;;448.17;;
7665;SDS011;3875;46.562;4.898;2023-11-21T07:50:28;446.03;;;411.87;;
7665;SDS011;3875;46.562;4.898;2023-11-21T07:52:54;469.07;;;433.50;;
7665;SDS011;3875;46.562;4.898;2023-11-21T07:55:20;474.20;;;438.73;;
7665;SDS011;3875;46.562;4.898;2023-11-21T07:57:46;465.17;;;430.20;;
7665;SDS011;3875;46.562;4.898;2023-11-21T08:00:12;471.30;;;436.13;;
7665;SDS011;3875;46.562;4.898;2023-11-21T08:02:40;448.83;;;414.03;;
7665;SDS011;3875;46.562;4.898;2023-11-21T08:05:11;465.27;;;430.00;;
7665;SDS011;3875;46.562;4.898;2023-11-21T08:07:37;457.83;;;422.80;;
7665;SDS011;3875;46.562;4.898;2023-11-21T08:10:03;441.37;;;407.77;;
7665;SDS011;3875;46.562;4.898;2023-11-21T08:12:30;466.00;;;431.00;;
7665;SDS011;3875;46.562;4.898;2023-11-21T08:14:55;459.13;;;424.77;;
7665;SDS011;3875;46.562;4.898;2023-11-21T08:17:21;469.30;;;434.63;;
7665;SDS011;3875;46.562;4.898;2023-11-21T08:19:47;459.83;;;425.53;;
7665;SDS011;3875;46.562;4.898;2023-11-21T08:22:17;458.27;;;424.00;;
7665;SDS011;3875;46.562;4.898;2023-11-21T08:24:45;450.83;;;417.13;;
7665;SDS011;3875;46.562;4.898;2023-11-21T08:27:11;467.00;;;432.30;;
7665;SDS011;3875;46.562;4.898;2023-11-21T08:29:40;458.67;;;424.30;;
7665;SDS011;3875;46.562;4.898;2023-11-21T08:32:07;476.70;;;441.60;;
7665;SDS011;3875;46.562;4.898;2023-11-21T08:34:32;471.90;;;437.33;;
7665;SDS011;3875;46.562;4.898;2023-11-21T08:36:58;483.67;;;447.70;;
7665;SDS011;3875;46.562;4.898;2023-11-21T08:39:24;465.20;;;430.77;;
7665;SDS011;3875;46.562;4.898;2023-11-21T08:41:50;478.00;;;442.30;;
7665;SDS011;3875;46.562;4.898;2023-11-21T08:44:16;475.27;;;440.27;;
7665;SDS011;3875;46.562;4.898;2023-11-21T08:46:43;458.77;;;424.77;;
7665;SDS011;3875;46.562;4.898;2023-11-21T08:49:11;474.97;;;439.90;;
7665;SDS011;3875;46.562;4.898;2023-11-21T08:51:37;470.43;;;436.20;;
7665;SDS011;3875;46.562;4.898;2023-11-21T08:54:03;471.37;;;436.77;;
7665;SDS011;3875;46.562;4.898;2023-11-21T08:56:32;493.50;;;457.73;;
7665;SDS011;3875;46.562;4.898;2023-11-21T08:59:01;475.17;;;440.37;;
7665;SDS011;3875;46.562;4.898;2023-11-21T09:01:31;499.23;;;463.43;;
7665;SDS011;3875;46.562;4.898;2023-11-21T09:03:57;486.20;;;450.23;;
7665;SDS011;3875;46.562;4.898;2023-11-21T09:06:23;525.80;;;488.17;;
7665;SDS011;3875;46.562;4.898;2023-11-21T09:08:49;504.00;;;467.03;;
7665;SDS011;3875;46.562;4.898;2023-11-21T09:11:15;523.67;;;486.30;;
7665;SDS011;3875;46.562;4.898;2023-11-21T09:13:41;527.73;;;490.07;;
7665;SDS011;3875;46.562;4.898;2023-11-21T09:16:06;512.37;;;475.13;;
7665;SDS011;3875;46.562;4.898;2023-11-21T09:18:32;529.73;;;491.47;;
7665;SDS011;3875;46.562;4.898;2023-11-21T09:20:58;525.30;;;487.23;;
7665;SDS011;3875;46.562;4.898;2023-11-21T09:23:24;494.43;;;458.97;;
7665;SDS011;3875;46.562;4.898;2023-11-21T09:25:49;517.60;;;479.77;;
7665;SDS011;3875;46.562;4.898;2023-11-21T09:28:16;503.50;;;467.90;;
7665;SDS011;3875;46.562;4.898;2023-11-21T09:30:42;510.83;;;474.70;;
7665;SDS011;3875;46.562;4.898;2023-11-21T09:33:09;513.57;;;476.83;;
7665;SDS011;3875;46.562;4.898;2023-11-21T09:35:37;518.90;;;481.87;;
7665;SDS011;3875;46.562;4.898;2023-11-21T09:38:03;495.33;;;459.70;;
7665;SDS011;3875;46.562;4.898;2023-11-21T09:40:35;623.80;;;583.25;;
7665;SDS011;3875;46.562;4.898;2023-11-21T09:43:00;598.10;;;559.25;;
7665;SDS011;3875;46.562;4.898;2023-11-21T09:45:34;540.90;;;503.03;;
7665;SDS011;3875;46.562;4.898;2023-11-21T09:48:01;544.60;;;506.50;;
7665;SDS011;3875;46.562;4.898;2023-11-21T09:50:27;513.50;;;476.53;;
7665;SDS011;3875;46.562;4.898;2023-11-21T09:55:39;626.87;;;586.43;;
7665;SDS011;3875;46.562;4.898;2023-11-21T09:58:09;552.60;;;514.27;;
7665;SDS011;3875;46.562;4.898;2023-11-21T10:00:38;565.30;;;526.37;;
7665;SDS011;3875;46.562;4.898;2023-11-21T10:03:06;551.57;;;513.33;;
7665;SDS011;3875;46.562;4.898;2023-11-21T10:05:32;591.93;;;551.70;;
7665;SDS011;3875;46.562;4.898;2023-11-21T10:07:59;582.50;;;542.60;;
7665;SDS011;3875;46.562;4.898;2023-11-21T10:10:25;666.88;;;623.97;;
7665;SDS011;3875;46.562;4.898;2023-11-21T10:12:54;582.73;;;543.33;;
7665;SDS011;3875;46.562;4.898;2023-11-21T10:15:22;569.07;;;530.40;;
7665;SDS011;3875;46.562;4.898;2023-11-21T10:17:50;550.97;;;512.60;;
7665;SDS011;3875;46.562;4.898;2023-11-21T10:20:18;549.73;;;511.40;;
7665;SDS011;3875;46.562;4.898;2023-11-21T10:22:44;540.43;;;502.50;;
7665;SDS011;3875;46.562;4.898;2023-11-21T10:25:11;527.03;;;489.57;;
7665;SDS011;3875;46.562;4.898;2023-11-21T10:27:40;520.07;;;483.23;;
7665;SDS011;3875;46.562;4.898;2023-11-21T10:30:07;533.90;;;496.43;;
7665;SDS011;3875;46.562;4.898;2023-11-21T10:32:37;516.87;;;480.27;;
7665;SDS011;3875;46.562;4.898;2023-11-21T10:35:06;532.03;;;494.70;;
7665;SDS011;3875;46.562;4.898;2023-11-21T10:37:41;507.03;;;471.10;;
7665;SDS011;3875;46.562;4.898;2023-11-21T10:40:08;539.87;;;502.10;;
7665;SDS011;3875;46.562;4.898;2023-11-21T10:42:40;528.70;;;492.07;;
7665;SDS011;3875;46.562;4.898;2023-11-21T10:45:07;542.73;;;505.17;;
7665;SDS011;3875;46.562;4.898;2023-11-21T10:47:43;545.03;;;507.20;;
7665;SDS011;3875;46.562;4.898;2023-11-21T10:50:09;519.20;;;482.80;;
7665;SDS011;3875;46.562;4.898;2023-11-21T10:52:36;550.67;;;513.13;;
7665;SDS011;3875;46.562;4.898;2023-11-21T10:55:15;552.07;;;514.30;;
7665;SDS011;3875;46.562;4.898;2023-11-21T10:57:51;560.33;;;521.97;;
7665;SDS011;3875;46.562;4.898;2023-11-21T11:00:18;526.30;;;489.50;;
7665;SDS011;3875;46.562;4.898;2023-11-21T11:02:56;530.43;;;493.40;;
7665;SDS011;3875;46.562;4.898;2023-11-21T11:05:24;539.97;;;502.07;;
7665;SDS011;3875;46.562;4.898;2023-11-21T11:07:51;545.70;;;508.13;;
7665;SDS011;3875;46.562;4.898;2023-11-21T11:10:25;528.03;;;490.77;;
7665;SDS011;3875;46.562;4.898;2023-11-21T11:12:56;524.40;;;487.60;;
7665;SDS011;3875;46.562;4.898;2023-11-21T11:15:27;539.70;;;502.00;;
7665;SDS011;3875;46.562;4.898;2023-11-21T11:17:54;519.10;;;482.50;;
7665;SDS011;3875;46.562;4.898;2023-11-21T11:20:25;537.33;;;499.73;;
7665;SDS011;3875;46.562;4.898;2023-11-21T11:23:04;541.30;;;503.33;;
7665;SDS011;3875;46.562;4.898;2023-11-21T11:28:54;531.67;;;494.67;;
7665;SDS011;3875;46.562;4.898;2023-11-21T11:34:26;522.57;;;486.23;;
7665;SDS011;3875;46.562;4.898;2023-11-21T11:39:29;523.43;;;486.90;;
7665;SDS011;3875;46.562;4.898;2023-11-21T11:41:56;512.93;;;476.73;;
7665;SDS011;3875;46.562;4.898;2023-11-21T11:50:11;616.70;;;577.20;;
7665;SDS011;3875;46.562;4.898;2023-11-21T11:52:47;557.53;;;520.20;;
7665;SDS011;3875;46.562;4.898;2023-11-21T11:55:16;533.50;;;497.43;;
7665;SDS011;3875;46.562;4.898;2023-11-21T11:57:44;526.30;;;490.17;;
7665;SDS011;3875;46.562;4.898;2023-11-21T12:00:33;508.17;;;473.30;;
7665;SDS011;3875;46.562;4.898;2023-11-21T12:03:02;527.47;;;490.77;;
7665;SDS011;3875;46.562;4.898;2023-11-21T12:05:29;524.07;;;487.37;;
7665;SDS011;3875;46.562;4.898;2023-11-21T12:07:59;508.17;;;472.97;;
7665;SDS011;3875;46.562;4.898;2023-11-21T12:10:29;523.87;;;487.13;;
7665;SDS011;3875;46.562;4.898;2023-11-21T12:13:01;541.93;;;504.33;;
7665;SDS011;3875;46.562;4.898;2023-11-21T12:15:35;505.33;;;469.63;;
7665;SDS011;3875;46.562;4.898;2023-11-21T12:18:01;503.47;;;468.27;;
7665;SDS011;3875;46.562;4.898;2023-11-21T12:20:27;483.83;;;449.97;;
7665;SDS011;3875;46.562;4.898;2023-11-21T12:22:54;497.37;;;462.97;;
7665;SDS011;3875;46.562;4.898;2023-11-21T12:25:21;486.70;;;452.70;;
7665;SDS011;3875;46.562;4.898;2023-11-21T12:27:49;481.60;;;447.63;;
7665;SDS011;3875;46.562;4.898;2023-11-21T12:30:18;475.23;;;441.80;;
7665;SDS011;3875;46.562;4.898;2023-11-21T12:32:53;478.50;;;445.60;;
7665;SDS011;3875;46.562;4.898;2023-11-21T12:35:21;616.72;;;577.22;;
7665;SDS011;3875;46.562;4.898;2023-11-21T12:37:49;529.27;;;493.87;;
7665;SDS011;3875;46.562;4.898;2023-11-21T12:40:17;516.50;;;481.67;;
7665;SDS011;3875;46.562;4.898;2023-11-21T12:42:44;517.87;;;483.10;;
7665;SDS011;3875;46.562;4.898;2023-11-21T12:45:24;513.57;;;479.17;;
7665;SDS011;3875;46.562;4.898;2023-11-21T12:47:55;526.33;;;491.00;;
7665;SDS011;3875;46.562;4.898;2023-11-21T12:50:25;708.60;;;663.47;;
7665;SDS011;3875;46.562;4.898;2023-11-21T12:52:55;598.13;;;558.50;;
7665;SDS011;3875;46.562;4.898;2023-11-21T12:55:24;535.47;;;499.30;;
7665;SDS011;3875;46.562;4.898;2023-11-21T12:57:54;536.97;;;500.87;;
7665;SDS011;3875;46.562;4.898;2023-11-21T13:00:27;524.03;;;488.73;;
7665;SDS011;3875;46.562;4.898;2023-11-21T13:02:59;495.10;;;461.47;;
7665;SDS011;3875;46.562;4.898;2023-11-21T13:07:58;503.87;;;469.03;;
7665;SDS011;3875;46.562;4.898;2023-11-21T13:10:27;470.80;;;438.20;;
7665;SDS011;3875;46.562;4.898;2023-11-21T13:12:55;451.43;;;419.90;;
7665;SDS011;3875;46.562;4.898;2023-11-21T13:15:29;450.87;;;419.37;;
7665;SDS011;3875;46.562;4.898;2023-11-21T13:17:56;455.13;;;423.77;;
7665;SDS011;3875;46.562;4.898;2023-11-21T13:20:23;560.22;;;524.55;;
7665;SDS011;3875;46.562;4.898;2023-11-21T13:22:58;500.70;;;467.03;;
7665;SDS011;3875;46.562;4.898;2023-11-21T13:25:25;473.47;;;441.60;;
7665;SDS011;3875;46.562;4.898;2023-11-21T13:27:56;488.70;;;455.77;;
7665;SDS011;3875;46.562;4.898;2023-11-21T13:30:24;481.83;;;449.27;;
7665;SDS011;3875;46.562;4.898;2023-11-21T13:32:59;458.43;;;426.97;;
7665;SDS011;3875;46.562;4.898;2023-11-21T13:35:31;474.10;;;441.97;;
7665;SDS011;3875;46.562;4.898;2023-11-21T13:38:18;472.73;;;440.83;;
7665;SDS011;3875;46.562;4.898;2023-11-21T13:40:50;472.27;;;440.07;;
7665;SDS011;3875;46.562;4.898;2023-11-21T13:43:19;475.77;;;443.20;;
7665;SDS011;3875;46.562;4.898;2023-11-21T13:45:49;512.58;;;479.15;;
7665;SDS011;3875;46.562;4.898;2023-11-21T13:48:20;490.00;;;456.90;;
7665;SDS011;3875;46.562;4.898;2023-11-21T13:50:53;476.47;;;444.13;;
7665;SDS011;3875;46.562;4.898;2023-11-21T13:53:33;454.77;;;423.47;;
7665;SDS011;3875;46.562;4.898;2023-11-21T13:56:02;468.63;;;436.17;;
7665;SDS011;3875;46.562;4.898;2023-11-21T13:58:28;467.40;;;435.60;;
7665;SDS011;3875;46.562;4.898;2023-11-21T14:01:12;465.10;;;433.00;;
7665;SDS011;3875;46.562;4.898;2023-11-21T14:04:04;445.43;;;414.73;;
7665;SDS011;3875;46.562;4.898;2023-11-21T14:06:43;457.40;;;425.60;;
7665;SDS011;3875;46.562;4.898;2023-11-21T14:09:14;459.10;;;427.67;;
7665;SDS011;3875;46.562;4.898;2023-11-21T14:11:48;453.23;;;421.60;;
7665;SDS011;3875;46.562;4.898;2023-11-21T14:14:14;471.70;;;439.30;;
7665;SDS011;3875;46.562;4.898;2023-11-21T14:16:40;452.50;;;421.50;;
7665;SDS011;3875;46.562;4.898;2023-11-21T14:19:07;470.13;;;437.60;;
7665;SDS011;3875;46.562;4.898;2023-11-21T14:21:40;457.13;;;425.60;;
7665;SDS011;3875;46.562;4.898;2023-11-21T14:24:13;454.90;;;423.97;;
7665;SDS011;3875;46.562;4.898;2023-11-21T14:26:42;472.30;;;439.47;;
7665;SDS011;3875;46.562;4.898;2023-11-21T14:29:10;470.37;;;438.00;;
7665;SDS011;3875;46.562;4.898;2023-11-21T14:31:39;489.33;;;454.87;;
7665;SDS011;3875;46.562;4.898;2023-11-21T14:34:05;468.83;;;436.07;;
7665;SDS011;3875;46.562;4.898;2023-11-21T14:36:32;476.30;;;443.10;;
7665;SDS011;3875;46.562;4.898;2023-11-21T14:38:58;462.93;;;430.27;;
7665;SDS011;3875;46.562;4.898;2023-11-21T14:41:24;458.23;;;426.23;;
7665;SDS011;3875;46.562;4.898;2023-11-21T14:43:50;438.97;;;408.17;;